Time;durP1;ratioP1;P1;durP2;ratioP2;P2;SDS_P1;SDS_P2;PMS_P1;PMS_P2;Temp;Humidity;BMP_temperature;BMP_pressure;BME280_temperature;BME280_humidity;BME280_pressure;Samples;Min_cycle;Max_cycle;Signal;HPM_P1;HPM_P2
2023/03/04 00:00:06;;;;;;;2.05;1.02;;;18.00;33.20;;;;;;5051234;28;20188;-74
2023/03/04 00:02:33;;;;;;;2.55;1.13;;;18.00;33.20;;;;;;5052889;28;20215;-75
2023/03/04 00:05:03;;;;;;;1.35;1.00;;;18.00;33.20;;;;;;5052573;28;20219;-74
2023/03/04 00:07:31;;;;;;;1.15;1.05;;;18.00;33.20;;;;;;5052690;28;20226;-74
2023/03/04 00:09:58;;;;;;;3.67;0.95;;;18.00;33.20;;;;;;5052745;28;20243;-74
2023/03/04 00:12:25;;;;;;;1.80;0.80;;;18.00;33.30;;;;;;5052800;28;20272;-74
2023/03/04 00:14:52;;;;;;;1.27;0.80;;;18.00;33.20;;;;;;5050857;28;20677;-74
2023/03/04 00:17:20;;;;;;;1.20;1.05;;;18.00;33.30;;;;;;5051564;28;20254;-74
2023/03/04 00:19:47;;;;;;;1.67;1.15;;;17.90;33.20;;;;;;5050895;28;20569;-74
2023/03/04 00:22:16;;;;;;;2.30;1.10;;;17.90;33.20;;;;;;5052555;28;20223;-74
2023/03/04 00:24:43;;;;;;;2.30;1.13;;;17.90;33.20;;;;;;5051969;28;20195;-74
2023/03/04 00:27:10;;;;;;;1.17;0.90;;;17.90;33.20;;;;;;5051338;28;20219;-74
2023/03/04 00:29:38;;;;;;;2.42;1.00;;;17.90;33.20;;;;;;5052101;28;20568;-74
2023/03/04 00:32:05;;;;;;;2.10;1.42;;;17.90;33.20;;;;;;5051044;28;20215;-74
2023/03/04 00:34:32;;;;;;;4.32;1.10;;;17.90;33.20;;;;;;5050766;28;20191;-74
2023/03/04 00:37:00;;;;;;;1.08;0.82;;;17.90;33.20;;;;;;5051079;28;20247;-74
2023/03/04 00:39:29;;;;;;;3.63;0.88;;;17.90;33.20;;;;;;5052350;28;20195;-74
2023/03/04 00:41:56;;;;;;;2.83;1.23;;;17.90;33.20;;;;;;5050671;28;20328;-74
2023/03/04 00:44:23;;;;;;;2.15;1.00;;;17.90;33.20;;;;;;5052231;28;20188;-74
2023/03/04 00:46:51;;;;;;;2.30;1.20;;;17.90;33.20;;;;;;5051061;28;20273;-74
2023/03/04 00:49:18;;;;;;;1.50;0.82;;;17.90;33.20;;;;;;5051972;28;20665;-74
2023/03/04 00:51:45;;;;;;;2.05;1.05;;;17.90;33.30;;;;;;5050973;28;20257;-74
2023/03/04 00:54:12;;;;;;;1.02;0.95;;;17.90;33.30;;;;;;5052265;28;20192;-73
2023/03/04 00:56:41;;;;;;;1.83;1.10;;;17.80;33.20;;;;;;5052043;28;20231;-74
2023/03/04 00:59:09;;;;;;;3.40;1.15;;;17.80;33.20;;;;;;5051868;28;20552;-74
2023/03/04 01:01:36;;;;;;;2.08;1.10;;;17.80;33.20;;;;;;5051790;28;20697;-74
2023/03/04 01:04:04;;;;;;;3.42;0.80;;;17.80;33.20;;;;;;5051977;28;20183;-74
2023/03/04 01:06:31;;;;;;;2.33;1.02;;;17.80;33.20;;;;;;5052102;28;20558;-74
2023/03/04 01:08:58;;;;;;;1.95;0.90;;;17.80;33.20;;;;;;5052216;28;20249;-74
2023/03/04 01:11:25;;;;;;;2.15;0.90;;;17.80;33.20;;;;;;5052042;28;20242;-74
2023/03/04 01:13:54;;;;;;;1.67;1.00;;;17.80;33.20;;;;;;5051678;28;20238;-74
2023/03/04 01:16:21;;;;;;;2.15;0.80;;;17.80;33.20;;;;;;5051830;28;20640;-74
2023/03/04 01:18:48;;;;;;;1.70;0.90;;;17.80;33.20;;;;;;5052003;28;20258;-74
2023/03/04 01:21:15;;;;;;;2.40;0.82;;;17.80;33.20;;;;;;5051671;28;20304;-74
2023/03/04 01:23:43;;;;;;;1.70;0.90;;;17.80;33.20;;;;;;5050715;28;20192;-74
2023/03/04 01:26:10;;;;;;;1.67;0.75;;;17.80;33.30;;;;;;5065535;28;20248;-74
2023/03/04 01:28:37;;;;;;;2.25;0.90;;;17.80;33.20;;;;;;5071825;28;20203;-74
2023/03/04 01:31:06;;;;;;;1.50;0.90;;;17.70;33.10;;;;;;5071751;28;20257;-74
2023/03/04 01:33:33;;;;;;;1.20;0.93;;;17.70;33.20;;;;;;5071850;28;20232;-74
2023/03/04 01:36:00;;;;;;;1.10;0.80;;;17.70;33.20;;;;;;5073474;28;20672;-74
2023/03/04 01:38:28;;;;;;;1.50;1.00;;;17.70;33.20;;;;;;5075501;28;20183;-74
2023/03/04 01:40:55;;;;;;;2.05;1.10;;;17.70;33.20;;;;;;5075444;28;20194;-74
2023/03/04 01:43:25;;;;;;;2.03;0.65;;;17.70;33.20;;;;;;5074071;28;20626;-74
2023/03/04 01:45:54;;;;;;;3.17;1.20;;;17.70;33.20;;;;;;5075297;28;20198;-74
2023/03/04 01:48:26;;;;;;;4.50;0.80;;;17.70;33.20;;;;;;5075574;28;20218;-74
2023/03/04 01:50:54;;;;;;;1.30;0.90;;;17.70;33.20;;;;;;5074118;28;20211;-74
2023/03/04 01:53:24;;;;;;;2.47;0.90;;;17.70;33.20;;;;;;5075483;28;20214;-74
2023/03/04 01:55:54;;;;;;;1.30;0.93;;;17.70;33.20;;;;;;5074772;28;20284;-74
2023/03/04 01:58:21;;;;;;;1.95;0.80;;;17.70;33.20;;;;;;5075405;28;20218;-74
2023/03/04 02:00:48;;;;;;;1.55;0.98;;;17.70;33.20;;;;;;5075036;28;20244;-74
2023/03/04 02:03:19;;;;;;;0.90;0.82;;;17.70;33.30;;;;;;5075060;28;20701;-74
2023/03/04 02:05:50;;;;;;;1.95;0.93;;;17.70;33.20;;;;;;5075055;28;20289;-74
2023/03/04 02:08:21;;;;;;;1.45;0.88;;;17.70;33.20;;;;;;5075306;28;20547;-74
2023/03/04 02:10:49;;;;;;;0.75;0.75;;;17.70;33.30;;;;;;5074873;28;20236;-74
2023/03/04 02:13:17;;;;;;;1.20;0.93;;;17.60;33.20;;;;;;5075020;28;20215;-74
2023/03/04 02:15:46;;;;;;;1.27;0.90;;;17.60;33.20;;;;;;5074807;28;20248;-74
2023/03/04 02:18:16;;;;;;;2.33;1.25;;;17.60;33.20;;;;;;5074459;28;20272;-74
2023/03/04 02:20:54;;;;;;;1.58;0.90;;;17.60;33.20;;;;;;5074380;28;20227;-74
2023/03/04 02:23:26;;;;;;;1.42;0.88;;;17.60;33.20;;;;;;5074946;28;20223;-74
2023/03/04 02:26:23;;;;;;;1.73;0.88;;;17.60;33.20;;;;;;5074601;28;20187;-74
2023/03/04 02:28:54;;;;;;;1.85;1.00;;;17.60;33.20;;;;;;5063849;28;20225;-74
2023/03/04 02:31:25;;;;;;;2.28;1.08;;;17.60;33.20;;;;;;5074205;28;20195;-74
2023/03/04 02:33:54;;;;;;;2.83;1.45;;;17.60;33.30;;;;;;5074499;28;20194;-74
2023/03/04 02:36:22;;;;;;;1.20;0.90;;;17.60;33.30;;;;;;5073945;28;20214;-74
2023/03/04 02:38:51;;;;;;;1.17;0.90;;;17.60;33.30;;;;;;5074358;28;20203;-74
2023/03/04 02:41:21;;;;;;;1.25;1.00;;;17.60;33.30;;;;;;5074293;28;20183;-74
2023/03/04 02:43:51;;;;;;;1.17;0.90;;;17.60;33.30;;;;;;5074338;28;20539;-74
2023/03/04 02:46:21;;;;;;;0.98;0.80;;;17.60;33.30;;;;;;5073658;28;20193;-74
2023/03/04 02:48:48;;;;;;;1.70;0.82;;;17.50;33.20;;;;;;5074206;28;20249;-74
2023/03/04 02:51:16;;;;;;;1.67;1.00;;;17.50;33.20;;;;;;5073749;28;20202;-74
2023/03/04 02:53:43;;;;;;;3.00;0.82;;;17.50;33.20;;;;;;5073807;28;20195;-74
2023/03/04 02:56:10;;;;;;;1.10;0.90;;;17.60;34.00;;;;;;5072423;28;20941;-74
2023/03/04 02:58:39;;;;;;;1.75;1.00;;;17.50;33.30;;;;;;5074033;28;20195;-74
2023/03/04 03:01:06;;;;;;;1.77;1.00;;;17.50;34.00;;;;;;5073664;28;20183;-74
2023/03/04 03:03:35;;;;;;;1.58;0.95;;;17.50;33.30;;;;;;5074161;28;20219;-74
2023/03/04 03:06:02;;;;;;;0.65;0.65;;;17.50;33.40;;;;;;5073681;28;20256;-74
2023/03/04 03:08:29;;;;;;;1.65;0.80;;;17.50;33.40;;;;;;5074109;28;20738;-74
2023/03/04 03:10:56;;;;;;;1.27;0.90;;;17.50;33.40;;;;;;5073686;28;20194;-74
2023/03/04 03:13:23;;;;;;;1.95;0.93;;;17.50;33.40;;;;;;5073316;28;20226;-74
2023/03/04 03:15:51;;;;;;;1.08;0.82;;;17.50;33.40;;;;;;5072389;28;20202;-74
2023/03/04 03:18:18;;;;;;;1.23;0.70;;;17.50;33.40;;;;;;5073529;28;20700;-74
2023/03/04 03:20:46;;;;;;;2.17;0.90;;;17.50;33.40;;;;;;5073334;28;20230;-74
2023/03/04 03:23:14;;;;;;;2.38;0.80;;;17.50;33.40;;;;;;5073488;28;20260;-74
2023/03/04 03:25:41;;;;;;;2.30;0.88;;;17.50;33.40;;;;;;5073075;28;20609;-74
2023/03/04 03:28:08;;;;;;;2.13;0.98;;;17.50;33.40;;;;;;5073615;28;20622;-74
2023/03/04 03:30:35;;;;;;;2.00;0.90;;;17.50;33.40;;;;;;5073086;28;20187;-74
2023/03/04 03:33:02;;;;;;;1.73;1.00;;;17.50;33.50;;;;;;5073454;28;20214;-74
2023/03/04 03:35:30;;;;;;;1.17;0.85;;;17.50;33.50;;;;;;5072972;28;20245;-74
2023/03/04 03:37:59;;;;;;;1.05;0.85;;;17.50;33.50;;;;;;5072821;28;20233;-74
2023/03/04 03:40:26;;;;;;;3.00;0.93;;;17.50;33.50;;;;;;5072868;28;20186;-74
2023/03/04 03:42:54;;;;;;;3.38;1.00;;;17.40;33.50;;;;;;5072960;28;20219;-73
2023/03/04 03:45:21;;;;;;;1.27;0.70;;;17.40;33.50;;;;;;5072793;28;20653;-74
2023/03/04 03:47:48;;;;;;;2.25;1.05;;;17.50;33.50;;;;;;5073179;28;20214;-74
2023/03/04 03:50:16;;;;;;;1.38;0.70;;;17.40;33.50;;;;;;5072973;28;20190;-74
2023/03/04 03:52:43;;;;;;;2.42;0.93;;;17.50;33.60;;;;;;5072728;28;20223;-74
2023/03/04 03:55:12;;;;;;;1.38;1.00;;;17.40;33.50;;;;;;5072665;28;20656;-74
2023/03/04 03:57:39;;;;;;;1.17;0.82;;;17.40;33.50;;;;;;5072302;28;20226;-74
2023/03/04 04:00:08;;;;;;;2.50;0.80;;;17.40;33.50;;;;;;5072753;28;20598;-74
2023/03/04 04:02:36;;;;;;;1.55;0.90;;;17.40;33.60;;;;;;5072652;28;20769;-74
2023/03/04 04:05:03;;;;;;;1.75;0.80;;;17.40;33.50;;;;;;5072378;28;20624;-74
2023/03/04 04:07:30;;;;;;;2.33;0.80;;;17.40;33.60;;;;;;5072642;28;20244;-74
2023/03/04 04:09:58;;;;;;;2.40;0.98;;;17.40;33.70;;;;;;5071602;28;20191;-74
2023/03/04 04:12:26;;;;;;;3.50;1.10;;;17.40;33.60;;;;;;5071471;28;20214;-74
2023/03/04 04:14:54;;;;;;;1.33;0.98;;;17.40;33.60;;;;;;5072720;28;20211;-74
2023/03/04 04:17:21;;;;;;;0.68;0.60;;;17.40;33.60;;;;;;5072377;28;20227;-74
2023/03/04 04:19:48;;;;;;;1.70;1.00;;;17.40;33.60;;;;;;5072196;28;20770;-74
2023/03/04 04:22:18;;;;;;;2.05;0.77;;;17.40;33.60;;;;;;5072717;28;20273;-74
2023/03/04 04:24:45;;;;;;;1.42;0.80;;;17.30;33.60;;;;;;5072705;28;20194;-74
2023/03/04 04:27:12;;;;;;;1.85;0.80;;;17.40;33.70;;;;;;5072564;28;20271;-74
2023/03/04 04:29:41;;;;;;;1.75;0.80;;;17.30;33.60;;;;;;5072562;28;20190;-74
2023/03/04 04:32:11;;;;;;;1.15;0.98;;;17.40;33.70;;;;;;5072240;28;20214;-74
2023/03/04 04:34:39;;;;;;;1.98;1.00;;;17.30;33.60;;;;;;5072045;28;20549;-74
2023/03/04 04:37:07;;;;;;;2.17;0.90;;;17.40;33.70;;;;;;5072377;28;20287;-74
2023/03/04 04:39:34;;;;;;;1.08;0.80;;;17.30;33.60;;;;;;5071242;28;20601;-74
2023/03/04 04:42:01;;;;;;;2.38;0.98;;;17.30;33.60;;;;;;5072370;28;20219;-75
2023/03/04 04:44:28;;;;;;;2.55;1.13;;;17.30;33.70;;;;;;5072395;28;20640;-74
2023/03/04 04:46:57;;;;;;;1.23;0.65;;;17.30;33.70;;;;;;5071126;28;20268;-74
2023/03/04 04:49:25;;;;;;;1.63;0.95;;;17.30;33.70;;;;;;5072024;28;20240;-73
2023/03/04 04:51:52;;;;;;;1.23;1.00;;;17.30;33.70;;;;;;5071969;28;20699;-74
2023/03/04 04:54:19;;;;;;;1.38;1.02;;;17.30;33.70;;;;;;5072326;28;20186;-74
2023/03/04 04:56:46;;;;;;;1.80;0.80;;;17.30;33.70;;;;;;5071809;28;20750;-74
2023/03/04 04:59:14;;;;;;;1.20;0.70;;;17.30;33.70;;;;;;5072281;28;20233;-74
2023/03/04 05:01:41;;;;;;;1.30;0.80;;;17.30;33.70;;;;;;5071832;28;20719;-74
2023/03/04 05:04:11;;;;;;;1.38;0.90;;;17.30;33.70;;;;;;5072159;28;20240;-74
2023/03/04 05:06:38;;;;;;;1.40;0.77;;;17.30;33.70;;;;;;5070594;28;20229;-74
2023/03/04 05:09:06;;;;;;;1.45;0.90;;;17.30;33.70;;;;;;5072552;28;20191;-74
2023/03/04 05:11:33;;;;;;;2.10;1.00;;;17.30;33.70;;;;;;5075688;28;20183;-73
2023/03/04 05:14:00;;;;;;;2.15;0.88;;;17.30;33.70;;;;;;5076024;28;20202;-74
2023/03/04 05:16:27;;;;;;;1.85;0.80;;;17.30;33.70;;;;;;5075496;28;20718;-74
2023/03/04 05:18:55;;;;;;;2.35;1.00;;;17.20;33.70;;;;;;5075860;28;20214;-75
2023/03/04 05:21:23;;;;;;;1.55;0.68;;;17.30;33.70;;;;;;5075599;28;20226;-74
2023/03/04 05:23:51;;;;;;;1.27;1.00;;;17.20;33.70;;;;;;5075820;28;20225;-74
2023/03/04 05:26:19;;;;;;;2.30;0.73;;;17.30;33.70;;;;;;5075379;28;20187;-74
2023/03/04 05:28:46;;;;;;;1.60;0.93;;;17.30;33.80;;;;;;5075684;28;20218;-74
2023/03/04 05:31:13;;;;;;;4.72;1.30;;;17.30;33.80;;;;;;5075688;28;20241;-74
2023/03/04 05:33:41;;;;;;;1.23;0.80;;;17.30;33.70;;;;;;5075667;28;20219;-74
2023/03/04 05:36:08;;;;;;;2.45;0.95;;;17.30;33.80;;;;;;5075543;28;20529;-74
2023/03/04 05:38:37;;;;;;;2.05;1.15;;;17.20;33.70;;;;;;5075591;28;20635;-74
2023/03/04 05:41:06;;;;;;;1.45;0.85;;;17.20;33.70;;;;;;5075446;28;20194;-74
2023/03/04 05:43:35;;;;;;;3.20;1.00;;;17.20;33.70;;;;;;5075301;28;20742;-74
2023/03/04 05:46:03;;;;;;;4.32;1.02;;;17.20;33.70;;;;;;5075051;28;20217;-74
2023/03/04 05:48:30;;;;;;;3.85;1.10;;;17.30;33.80;;;;;;5075515;28;20218;-74
2023/03/04 05:50:59;;;;;;;1.13;0.88;;;17.20;33.70;;;;;;5075255;28;20187;-74
2023/03/04 05:53:27;;;;;;;3.25;0.93;;;17.30;33.90;;;;;;5075445;28;20272;-74
2023/03/04 05:55:58;;;;;;;3.45;1.08;;;17.30;33.80;;;;;;5074856;28;20187;-74
2023/03/04 05:58:25;;;;;;;2.88;1.17;;;17.30;33.80;;;;;;5074945;28;20642;-73
2023/03/04 06:00:53;;;;;;;3.08;1.10;;;17.30;33.80;;;;;;5075193;28;20187;-74
2023/03/04 06:03:22;;;;;;;3.70;0.98;;;17.40;33.90;;;;;;5074996;28;20240;-74
2023/03/04 06:05:49;;;;;;;1.85;1.05;;;17.30;33.80;;;;;;5075046;28;20187;-74
2023/03/04 06:08:17;;;;;;;1.83;0.93;;;17.40;33.80;;;;;;5075183;28;20225;-74
2023/03/04 06:10:44;;;;;;;3.65;1.00;;;17.40;33.80;;;;;;5074946;28;20191;-75
2023/03/04 06:13:13;;;;;;;2.15;0.90;;;17.40;33.80;;;;;;5075044;28;20218;-74
2023/03/04 06:15:40;;;;;;;5.68;1.13;;;17.50;33.90;;;;;;5074910;28;20183;-74
2023/03/04 06:18:08;;;;;;;3.50;1.05;;;17.50;33.90;;;;;;5074854;28;20277;-74
2023/03/04 06:20:35;;;;;;;2.53;1.38;;;17.50;33.80;;;;;;5073814;28;20280;-74
2023/03/04 06:23:03;;;;;;;5.05;1.20;;;17.60;34.00;;;;;;5074233;28;20261;-74
2023/03/04 06:25:31;;;;;;;2.50;1.02;;;17.60;34.00;;;;;;5074639;28;20253;-73
2023/03/04 06:27:59;;;;;;;3.17;1.25;;;17.60;34.00;;;;;;5074860;28;20226;-74
2023/03/04 06:30:29;;;;;;;3.78;1.20;;;17.60;34.00;;;;;;5074886;28;20722;-74
2023/03/04 06:32:56;;;;;;;4.72;1.10;;;17.60;34.00;;;;;;5073155;28;20214;-74
2023/03/04 06:35:23;;;;;;;3.42;1.27;;;17.70;34.00;;;;;;5074469;28;20264;-74
2023/03/04 06:37:50;;;;;;;3.45;1.25;;;17.70;34.00;;;;;;5072994;28;20623;-74
2023/03/04 06:40:18;;;;;;;2.95;1.30;;;17.70;34.00;;;;;;5074089;28;20187;-74
2023/03/04 06:42:45;;;;;;;3.22;1.40;;;17.80;34.10;;;;;;5074141;28;20703;-74
2023/03/04 06:45:13;;;;;;;3.80;0.90;;;17.70;34.00;;;;;;5074301;28;20191;-74
2023/03/04 06:47:43;;;;;;;3.83;1.30;;;17.80;34.10;;;;;;5074042;28;20340;-74
2023/03/04 06:50:13;;;;;;;2.10;1.15;;;17.80;34.10;;;;;;5074306;28;20194;-74
2023/03/04 06:52:40;;;;;;;5.47;1.30;;;17.80;34.10;;;;;;5073184;28;20219;-74
2023/03/04 06:55:09;;;;;;;6.38;1.40;;;17.80;34.10;;;;;;5072981;28;20202;-74
2023/03/04 06:57:36;;;;;;;4.32;1.48;;;17.80;34.10;;;;;;5074195;28;20226;-74
2023/03/04 07:00:04;;;;;;;3.92;1.48;;;17.90;34.20;;;;;;5072901;28;20251;-73
2023/03/04 07:02:32;;;;;;;2.45;1.10;;;17.90;34.20;;;;;;5074086;28;20268;-74
2023/03/04 07:05:02;;;;;;;2.20;1.00;;;17.90;34.20;;;;;;5073638;28;20240;-75
2023/03/04 07:07:29;;;;;;;2.83;1.20;;;17.90;34.20;;;;;;5072534;28;20215;-74
2023/03/04 07:09:56;;;;;;;3.25;1.17;;;18.00;34.30;;;;;;5073494;28;20645;-74
2023/03/04 07:12:23;;;;;;;4.70;1.38;;;18.00;34.30;;;;;;5072566;28;20272;-74
2023/03/04 07:14:50;;;;;;;1.52;1.10;;;18.00;34.30;;;;;;5073719;28;20244;-74
2023/03/04 07:17:17;;;;;;;4.25;1.40;;;18.00;34.30;;;;;;5073687;28;20219;-74
2023/03/04 07:19:45;;;;;;;3.17;1.50;;;18.00;34.30;;;;;;5073388;28;20226;-74
2023/03/04 07:22:13;;;;;;;4.25;1.17;;;18.00;34.30;;;;;;5073801;28;20222;-74
2023/03/04 07:24:41;;;;;;;3.22;1.17;;;18.10;34.30;;;;;;5073371;28;20202;-74
2023/03/04 07:27:08;;;;;;;4.22;1.42;;;18.10;34.30;;;;;;5073147;28;20237;-74
2023/03/04 07:29:35;;;;;;;2.97;1.15;;;18.10;34.30;;;;;;5073400;28;20248;-74
2023/03/04 07:32:07;;;;;;;3.38;1.35;;;18.10;34.30;;;;;;5073207;28;20276;-74
2023/03/04 07:34:34;;;;;;;5.38;1.40;;;18.10;34.30;;;;;;5072115;28;20653;-75
2023/03/04 07:37:01;;;;;;;2.33;1.27;;;18.10;34.30;;;;;;5073278;28;20190;-74
2023/03/04 07:39:32;;;;;;;5.40;1.20;;;18.10;34.30;;;;;;5073228;28;20219;-75
2023/03/04 07:41:59;;;;;;;2.80;1.20;;;18.10;34.30;;;;;;5071593;28;20224;-74
2023/03/04 07:44:26;;;;;;;4.63;1.30;;;18.20;34.30;;;;;;5072745;28;20191;-74
2023/03/04 07:46:53;;;;;;;4.72;1.30;;;18.20;34.30;;;;;;5073038;28;20195;-74
2023/03/04 07:49:21;;;;;;;4.07;1.50;;;18.20;34.30;;;;;;5072733;28;20194;-74
2023/03/04 07:51:48;;;;;;;4.70;1.48;;;18.20;34.30;;;;;;5072676;28;20722;-74
2023/03/04 07:54:15;;;;;;;4.57;1.27;;;18.20;34.30;;;;;;5072561;28;20619;-75
2023/03/04 07:56:44;;;;;;;4.53;1.45;;;18.20;34.20;;;;;;5072704;28;20240;-74
2023/03/04 07:59:11;;;;;;;3.03;1.20;;;18.20;34.30;;;;;;5072749;28;20218;-74
2023/03/04 08:01:38;;;;;;;3.30;1.30;;;18.30;34.30;;;;;;5072515;28;20560;-73
2023/03/04 08:04:07;;;;;;;4.38;1.38;;;18.30;34.40;;;;;;5072836;28;20215;-74
2023/03/04 08:06:35;;;;;;;4.78;1.42;;;18.30;34.30;;;;;;5072717;28;20260;-74
2023/03/04 08:09:05;;;;;;;5.13;1.80;;;18.30;34.30;;;;;;5073010;28;20219;-74
2023/03/04 08:11:34;;;;;;;2.45;1.38;;;18.30;34.30;;;;;;5072382;28;20187;-74
2023/03/04 08:14:04;;;;;;;5.72;1.60;;;18.30;34.30;;;;;;5072688;28;20222;-74
2023/03/04 08:16:31;;;;;;;2.63;1.23;;;18.30;34.20;;;;;;5071937;28;20183;-74
2023/03/04 08:19:01;;;;;;;4.03;1.40;;;18.30;34.20;;;;;;5071634;28;20234;-74
2023/03/04 08:21:28;;;;;;;3.03;1.08;;;18.40;34.30;;;;;;5072235;28;20226;-74
2023/03/04 08:23:58;;;;;;;4.60;1.60;;;18.30;34.20;;;;;;5072719;28;20211;-74
2023/03/04 08:26:27;;;;;;;4.55;1.67;;;18.40;34.30;;;;;;5072173;28;20187;-74
2023/03/04 08:28:56;;;;;;;4.35;1.50;;;18.30;34.20;;;;;;5072389;28;20215;-74
2023/03/04 08:31:25;;;;;;;4.18;1.35;;;18.40;34.20;;;;;;5072429;28;20193;-74
2023/03/04 08:33:52;;;;;;;3.55;1.63;;;18.40;34.20;;;;;;5072606;28;20287;-74
2023/03/04 08:36:20;;;;;;;3.97;1.40;;;18.40;34.20;;;;;;5072404;28;20191;-74
2023/03/04 08:38:48;;;;;;;4.25;1.60;;;18.40;34.20;;;;;;5072208;28;20231;-74
2023/03/04 08:41:15;;;;;;;4.78;1.33;;;18.40;34.10;;;;;;5072325;28;20248;-74
2023/03/04 08:43:43;;;;;;;4.38;1.45;;;18.50;34.20;;;;;;5071854;28;20222;-74
2023/03/04 08:46:10;;;;;;;4.93;1.70;;;18.40;34.10;;;;;;5072220;28;20244;-74
2023/03/04 08:48:39;;;;;;;2.90;1.40;;;18.40;34.10;;;;;;5071106;28;20268;-74
2023/03/04 08:51:11;;;;;;;3.00;1.40;;;18.50;34.10;;;;;;5072347;28;20191;-74
2023/03/04 08:53:39;;;;;;;4.38;1.42;;;18.40;34.00;;;;;;5070966;28;20222;-74
2023/03/04 08:56:07;;;;;;;5.35;1.52;;;18.50;34.10;;;;;;5071872;28;20636;-73
2023/03/04 08:58:35;;;;;;;4.68;1.67;;;18.50;34.10;;;;;;5070824;28;20676;-74
2023/03/04 09:01:04;;;;;;;3.47;1.60;;;18.50;34.10;;;;;;5072205;28;20186;-74
2023/03/04 09:03:31;;;;;;;3.88;1.58;;;18.50;34.10;;;;;;5072352;28;20653;-74
2023/03/04 09:06:02;;;;;;;3.55;1.40;;;18.50;34.00;;;;;;5071748;28;20191;-74
2023/03/04 09:08:29;;;;;;;3.45;1.65;;;18.50;34.00;;;;;;5071971;28;20280;-74
2023/03/04 09:10:57;;;;;;;4.97;1.50;;;18.50;34.00;;;;;;5072056;28;20191;-74
2023/03/04 09:13:25;;;;;;;2.22;1.30;;;18.50;34.00;;;;;;5071713;28;20293;-74
2023/03/04 09:15:53;;;;;;;4.25;1.73;;;18.50;34.00;;;;;;5053146;28;20257;-74
2023/03/04 09:18:22;;;;;;;4.70;1.75;;;18.50;33.90;;;;;;5071804;28;20222;-74
2023/03/04 09:20:50;;;;;;;4.93;1.45;;;18.60;34.00;;;;;;5054102;28;20262;-74
2023/03/04 09:23:19;;;;;;;6.40;1.80;;;18.50;33.90;;;;;;5072115;28;20277;-74
2023/03/04 09:25:48;;;;;;;3.55;1.40;;;18.60;33.90;;;;;;5071567;28;20191;-74
2023/03/04 09:28:15;;;;;;;5.90;1.65;;;18.60;34.00;;;;;;5072028;28;20215;-75
2023/03/04 09:30:43;;;;;;;6.10;1.73;;;18.60;33.90;;;;;;5071885;28;20607;-74
2023/03/04 09:33:11;;;;;;;4.13;1.58;;;18.60;33.90;;;;;;5072036;28;20222;-74
2023/03/04 09:35:38;;;;;;;4.00;1.83;;;18.60;33.90;;;;;;5071726;28;20610;-74
2023/03/04 09:38:05;;;;;;;3.58;1.60;;;18.60;33.90;;;;;;5071769;28;20219;-74
2023/03/04 09:40:41;;;;;;;5.35;1.40;;;18.60;33.90;;;;;;5070612;28;20191;-74
2023/03/04 09:43:17;;;;;;;3.05;1.67;;;18.60;33.90;;;;;;5071599;28;20684;-74
2023/03/04 09:45:50;;;;;;;7.30;1.60;;;18.60;33.80;;;;;;5070270;28;20237;-74
2023/03/04 09:48:21;;;;;;;5.22;1.90;;;18.60;33.80;;;;;;5071840;28;20276;-74
2023/03/04 09:51:01;;;;;;;3.40;1.30;;;18.70;33.90;;;;;;5071756;28;20241;-74
2023/03/04 09:53:35;;;;;;;3.72;1.27;;;18.60;33.80;;;;;;5071480;28;20215;-74
2023/03/04 09:56:07;;;;;;;4.32;1.52;;;18.60;33.70;;;;;;5071832;28;20190;-74
2023/03/04 09:58:44;;;;;;;5.43;1.48;;;18.70;33.80;;;;;;5074988;28;20230;-74
2023/03/04 10:01:20;;;;;;;3.45;1.35;;;18.70;33.80;;;;;;5074981;28;20656;-74
2023/03/04 10:03:51;;;;;;;4.53;1.50;;;18.70;33.80;;;;;;5075285;28;20210;-74
2023/03/04 10:06:21;;;;;;;2.85;1.45;;;18.70;33.80;;;;;;5074997;28;20274;-74
2023/03/04 10:08:55;;;;;;;5.57;1.65;;;18.70;33.70;;;;;;5074725;28;20770;-74
2023/03/04 10:11:32;;;;;;;3.05;1.30;;;18.70;33.70;;;;;;5074756;28;20191;-74
2023/03/04 10:14:26;;;;;;;3.25;1.48;;;18.70;33.70;;;;;;5074633;28;20633;-75
2023/03/04 10:16:59;;;;;;;4.60;1.75;;;18.70;33.70;;;;;;5074698;28;20244;-74
2023/03/04 10:19:42;;;;;;;4.00;1.30;;;18.70;33.70;;;;;;5074576;28;20234;-75
2023/03/04 10:22:20;;;;;;;2.92;1.27;;;18.70;33.70;;;;;;5074659;28;20183;-74
2023/03/04 10:24:48;;;;;;;6.00;1.70;;;18.70;33.70;;;;;;5074583;28;20197;-74
2023/03/04 10:27:19;;;;;;;4.85;1.67;;;18.80;33.80;;;;;;5074519;28;20194;-74
2023/03/04 10:29:46;;;;;;;4.40;1.52;;;18.70;33.70;;;;;;5074609;28;20187;-74
2023/03/04 10:32:17;;;;;;;5.18;1.45;;;18.70;33.60;;;;;;5074411;28;20236;-74
2023/03/04 10:34:44;;;;;;;3.97;1.40;;;18.70;33.60;;;;;;5073144;28;20182;-74
2023/03/04 10:37:12;;;;;;;2.78;1.45;;;18.70;33.60;;;;;;5074159;28;20240;-74
2023/03/04 10:39:41;;;;;;;3.17;1.30;;;18.80;33.70;;;;;;5074129;28;20264;-74
2023/03/04 10:42:28;;;;;;;4.10;1.48;;;18.80;33.70;;;;;;5074254;28;20191;-74
2023/03/04 10:44:57;;;;;;;4.63;1.40;;;18.80;33.60;;;;;;5074555;28;20191;-75
2023/03/04 10:47:26;;;;;;;4.57;1.75;;;18.80;33.60;;;;;;5074247;28;20191;-74
2023/03/04 10:49:54;;;;;;;3.00;1.50;;;18.80;33.60;;;;;;5074307;28;20236;-74
2023/03/04 10:52:29;;;;;;;2.88;1.20;;;18.80;33.60;;;;;;5073901;28;20645;-74
2023/03/04 10:54:59;;;;;;;4.43;1.50;;;18.80;33.60;;;;;;5074165;28;20240;-74
2023/03/04 10:57:34;;;;;;;4.38;1.50;;;18.80;33.60;;;;;;5073951;28;20195;-74
2023/03/04 11:00:02;;;;;;;3.47;1.70;;;18.80;33.50;;;;;;5073926;28;20218;-74
2023/03/04 11:02:31;;;;;;;3.90;1.30;;;18.80;33.60;;;;;;5073961;28;20232;-74
2023/03/04 11:05:07;;;;;;;2.65;1.38;;;18.80;33.50;;;;;;5072797;28;20194;-74
2023/03/04 11:07:40;;;;;;;4.50;1.77;;;18.80;33.50;;;;;;5073418;28;20218;-74
2023/03/04 11:10:09;;;;;;;3.28;1.45;;;18.80;33.50;;;;;;5073551;28;20629;-75
2023/03/04 11:12:38;;;;;;;4.63;1.40;;;18.90;33.60;;;;;;5073471;28;20214;-74
2023/03/04 11:15:19;;;;;;;5.45;1.60;;;18.90;33.60;;;;;;5073664;28;20183;-74
2023/03/04 11:17:51;;;;;;;2.72;1.50;;;18.90;33.60;;;;;;5073881;28;20306;-74
2023/03/04 11:20:29;;;;;;;2.03;1.23;;;18.90;33.50;;;;;;5073293;28;20583;-75
2023/03/04 11:22:59;;;;;;;5.55;1.63;;;18.90;33.60;;;;;;5073296;28;20782;-74
2023/03/04 11:25:29;;;;;;;3.92;1.52;;;18.90;33.50;;;;;;5073462;28;20195;-74
2023/03/04 11:28:02;;;;;;;5.15;1.60;;;18.90;33.50;;;;;;5073174;28;20617;-74
2023/03/04 11:30:41;;;;;;;3.47;1.58;;;18.90;33.50;;;;;;5073475;28;20191;-74
2023/03/04 11:33:24;;;;;;;3.25;1.63;;;18.90;33.50;;;;;;5073404;28;20211;-74
2023/03/04 11:36:18;;;;;;;4.03;1.35;;;18.90;33.50;;;;;;5072930;28;20187;-74
2023/03/04 11:38:48;;;;;;;3.63;1.40;;;18.90;33.40;;;;;;5073094;28;20218;-74
2023/03/04 11:41:20;;;;;;;3.13;1.50;;;18.90;33.50;;;;;;5072894;28;20278;-74
2023/03/04 11:43:50;;;;;;;4.30;1.40;;;18.90;33.40;;;;;;5073329;28;20633;-74
2023/03/04 11:46:50;;;;;;;4.30;1.48;;;18.90;33.50;;;;;;5073177;28;20187;-74
2023/03/04 11:49:35;;;;;;;3.58;1.40;;;18.90;33.40;;;;;;5070962;28;20576;-74
2023/03/04 11:52:10;;;;;;;4.50;1.50;;;18.90;33.40;;;;;;5073557;28;20187;-75
2023/03/04 11:54:46;;;;;;;4.70;1.70;;;18.90;33.40;;;;;;5073155;28;20297;-74
2023/03/04 11:57:24;;;;;;;4.47;1.75;;;18.90;33.40;;;;;;5072540;28;20543;-74
2023/03/04 12:00:16;;;;;;;4.95;1.80;;;18.90;33.40;;;;;;5072913;28;20218;-74
2023/03/04 12:02:54;;;;;;;4.53;1.58;;;18.90;33.40;;;;;;5072863;28;20223;-74
2023/03/04 12:05:31;;;;;;;4.38;1.50;;;18.90;33.30;;;;;;5072843;28;20190;-74
2023/03/04 12:08:13;;;;;;;2.97;1.35;;;18.90;33.30;;;;;;5072809;28;20264;-75
2023/03/04 12:10:46;;;;;;;2.63;1.52;;;18.90;33.30;;;;;;5072557;28;20195;-74
2023/03/04 12:13:40;;;;;;;3.63;1.38;;;18.90;33.30;;;;;;5072380;28;20215;-75
2023/03/04 12:16:21;;;;;;;2.05;1.20;;;18.90;33.30;;;;;;5072661;28;20256;-74
2023/03/04 12:19:06;;;;;;;3.28;1.33;;;18.90;33.30;;;;;;5071824;28;20853;-74
2023/03/04 12:21:53;;;;;;;4.13;1.50;;;18.90;33.30;;;;;;5072073;28;20235;-74
2023/03/04 12:24:51;;;;;;;3.92;1.63;;;19.00;33.30;;;;;;5071204;28;20210;-74
2023/03/04 12:27:27;;;;;;;2.78;1.27;;;18.90;33.90;;;;;;5072240;28;20182;-74
2023/03/04 12:30:04;;;;;;;4.63;1.30;;;19.00;33.30;;;;;;5072288;28;20190;-74
2023/03/04 12:32:41;;;;;;;4.82;1.45;;;18.90;33.30;;;;;;5072534;28;20620;-74
2023/03/04 12:35:33;;;;;;;4.78;1.70;;;19.00;33.30;;;;;;5072381;28;20190;-74
2023/03/04 12:38:25;;;;;;;2.38;1.40;;;19.00;33.30;;;;;;5070963;28;20249;-74
2023/03/04 12:41:01;;;;;;;3.70;1.33;;;19.00;33.30;;;;;;5071947;28;20707;-74
2023/03/04 12:43:38;;;;;;;2.63;1.40;;;19.00;33.30;;;;;;5072379;28;20218;-74
2023/03/04 12:46:18;;;;;;;3.35;1.58;;;19.00;33.30;;;;;;5072841;28;20222;-76
2023/03/04 12:48:57;;;;;;;2.88;1.38;;;19.00;33.00;;;;;;5072482;28;20314;-75
2023/03/04 12:51:32;;;;;;;7.18;1.55;;;19.00;33.00;;;;;;5071279;28;20230;-76
2023/03/04 12:54:17;;;;;;;3.95;1.60;;;19.00;32.80;;;;;;5060399;28;20304;-75
2023/03/04 12:56:49;;;;;;;3.13;1.55;;;18.90;32.60;;;;;;5071260;28;20202;-76
2023/03/04 12:59:19;;;;;;;14.68;1.58;;;19.00;32.60;;;;;;5063456;28;20767;-75
2023/03/04 13:01:54;;;;;;;6.35;1.30;;;18.90;32.50;;;;;;5051181;28;20249;-75